Time;durP1;ratioP1;P1;durP2;ratioP2;P2;SDS_P1;SDS_P2;PMS_P1;PMS_P2;Temp;Humidity;BMP_temperature;BMP_pressure;BME280_temperature;BME280_humidity;BME280_pressure;Samples;Min_cycle;Max_cycle;Signal;HPM_P1;HPM_P2
2022/10/02 00:00:34;;;;;;;11.23;3.37;;;11.10;99.90;;;;;;5031088;28;20452;-73
2022/10/02 00:03:06;;;;;;;6.73;3.40;;;11.10;99.90;;;;;;5031576;28;20461;-73
2022/10/02 00:05:37;;;;;;;11.03;3.30;;;11.10;99.90;;;;;;5030604;28;20474;-73
2022/10/02 00:08:09;;;;;;;10.10;3.33;;;11.10;99.90;;;;;;5030748;28;20461;-73
2022/10/02 00:10:43;;;;;;;9.57;3.30;;;11.10;99.90;;;;;;5030109;28;20460;-73
2022/10/02 00:13:16;;;;;;;15.33;3.93;;;11.10;99.90;;;;;;5031626;28;20513;-73
2022/10/02 00:15:44;;;;;;;13.60;3.30;;;11.00;99.90;;;;;;5030376;28;21012;-73
2022/10/02 00:18:14;;;;;;;11.73;3.50;;;11.00;99.90;;;;;;5030409;28;20467;-73
2022/10/02 00:20:46;;;;;;;18.50;4.20;;;10.90;99.90;;;;;;5030579;28;20457;-73
2022/10/02 00:23:21;;;;;;;10.67;3.83;;;10.90;99.90;;;;;;5030797;28;20450;-73
2022/10/02 00:25:54;;;;;;;8.40;3.57;;;10.80;99.90;;;;;;5030491;28;20469;-73
2022/10/02 00:28:28;;;;;;;12.00;3.70;;;10.80;99.90;;;;;;5030343;28;20488;-73
2022/10/02 00:31:19;;;;;;;8.00;3.10;;;10.70;99.90;;;;;;5030904;28;20469;-73
2022/10/02 00:33:59;;;;;;;13.20;3.40;;;10.70;99.90;;;;;;5030407;28;20954;-73
2022/10/02 00:36:39;;;;;;;11.13;3.27;;;10.70;99.90;;;;;;5029979;28;20516;-73
2022/10/02 00:39:19;;;;;;;13.80;3.93;;;10.70;99.90;;;;;;5028212;28;20981;-73
2022/10/02 00:42:18;;;;;;;13.30;3.30;;;10.70;99.90;;;;;;5030568;28;20970;-73
2022/10/02 00:45:02;;;;;;;9.37;3.60;;;10.70;99.90;;;;;;5030540;28;20993;-74
2022/10/02 00:47:40;;;;;;;13.50;4.47;;;10.70;99.90;;;;;;5029936;28;20970;-73
2022/10/02 00:50:22;;;;;;;20.13;4.40;;;10.70;99.90;;;;;;5029660;28;20485;-73
2022/10/02 00:53:02;;;;;;;19.20;3.63;;;10.80;99.90;;;;;;5030501;28;20450;-73
2022/10/02 00:55:57;;;;;;;18.43;4.10;;;10.80;99.90;;;;;;5030178;28;20484;-73
2022/10/02 00:58:36;;;;;;;7.07;3.20;;;10.80;99.90;;;;;;5006436;28;20455;-73
2022/10/02 01:01:13;;;;;;;12.00;3.73;;;10.90;99.90;;;;;;5027918;28;20461;-73
2022/10/02 01:03:40;;;;;;;9.87;3.30;;;10.90;99.90;;;;;;5030372;28;20450;-73
2022/10/02 01:06:09;;;;;;;14.13;4.07;;;10.90;99.90;;;;;;5030623;28;20462;-73
2022/10/02 01:08:36;;;;;;;12.90;3.83;;;10.90;99.90;;;;;;5033845;28;20512;-73
2022/10/02 01:11:03;;;;;;;15.37;3.90;;;11.00;99.90;;;;;;5034283;28;20457;-73
2022/10/02 01:13:31;;;;;;;13.10;3.50;;;11.00;99.90;;;;;;5034229;28;20453;-73
2022/10/02 01:16:00;;;;;;;13.33;4.00;;;11.00;99.90;;;;;;5034025;28;20806;-73
2022/10/02 01:18:30;;;;;;;11.63;3.30;;;11.00;99.90;;;;;;5033713;28;20510;-73
2022/10/02 01:21:02;;;;;;;10.23;3.57;;;11.00;99.90;;;;;;5033446;28;20449;-73
2022/10/02 01:23:35;;;;;;;13.37;3.73;;;11.00;99.90;;;;;;5034251;28;20467;-73
2022/10/02 01:26:03;;;;;;;15.13;4.10;;;11.00;99.90;;;;;;5027877;28;21124;-73
2022/10/02 01:28:30;;;;;;;15.90;3.70;;;11.00;99.90;;;;;;5033200;28;21000;-73
2022/10/02 01:31:11;;;;;;;15.33;3.77;;;11.10;99.90;;;;;;5033407;28;20450;-73
2022/10/02 01:33:40;;;;;;;12.93;3.40;;;11.10;99.90;;;;;;5033367;28;20973;-73
2022/10/02 01:36:08;;;;;;;11.80;3.57;;;11.10;99.90;;;;;;5034152;28;20850;-73
2022/10/02 01:38:35;;;;;;;11.67;3.93;;;11.10;99.90;;;;;;5033517;28;20862;-73
2022/10/02 01:41:03;;;;;;;16.33;3.90;;;11.10;99.90;;;;;;5033299;28;20976;-73
2022/10/02 01:43:34;;;;;;;19.17;4.13;;;11.00;99.90;;;;;;5033391;28;20469;-73
2022/10/02 01:46:24;;;;;;;17.47;3.47;;;11.20;99.90;;;;;;5033735;28;20453;-73
2022/10/02 01:49:00;;;;;;;9.53;3.63;;;11.20;99.90;;;;;;5033029;28;20486;-73
2022/10/02 01:51:57;;;;;;;19.23;3.90;;;11.20;99.90;;;;;;5033463;28;20848;-73
2022/10/02 01:54:33;;;;;;;13.37;3.70;;;11.30;99.90;;;;;;5024987;28;20474;-73
2022/10/02 01:57:14;;;;;;;12.80;3.53;;;11.20;99.90;;;;;;5033142;28;20442;-73
2022/10/02 01:59:50;;;;;;;13.57;3.33;;;11.20;99.90;;;;;;5031690;28;20440;-73
2022/10/02 02:02:25;;;;;;;15.10;3.87;;;11.20;99.90;;;;;;5033680;28;20453;-73
2022/10/02 02:04:56;;;;;;;12.37;3.47;;;11.20;99.90;;;;;;5033698;28;20812;-73
2022/10/02 02:07:34;;;;;;;16.47;3.60;;;11.20;99.90;;;;;;5033181;28;20993;-73
2022/10/02 02:10:09;;;;;;;13.50;3.87;;;11.20;99.90;;;;;;5032278;28;21021;-73
2022/10/02 02:12:43;;;;;;;19.00;4.00;;;11.20;99.90;;;;;;5032186;28;20446;-73
2022/10/02 02:15:15;;;;;;;13.27;3.43;;;11.20;99.90;;;;;;5028001;28;20507;-73
2022/10/02 02:17:49;;;;;;;12.23;3.90;;;11.20;99.90;;;;;;5023417;28;21001;-73
2022/10/02 02:20:19;;;;;;;17.43;3.87;;;11.20;99.90;;;;;;5033315;28;20447;-73
2022/10/02 02:22:50;;;;;;;14.97;3.53;;;11.20;99.90;;;;;;5032925;28;20455;-73
2022/10/02 02:25:19;;;;;;;19.23;4.70;;;11.20;99.90;;;;;;5032730;28;20994;-73
2022/10/02 02:27:50;;;;;;;15.00;4.03;;;11.20;99.90;;;;;;5032779;28;20449;-73
2022/10/02 02:30:19;;;;;;;16.30;5.03;;;11.20;99.90;;;;;;5032674;28;20493;-73
2022/10/02 02:32:49;;;;;;;9.00;4.10;;;11.20;99.90;;;;;;5033196;28;20816;-73
2022/10/02 02:35:21;;;;;;;11.33;3.90;;;11.20;99.90;;;;;;5032876;28;20477;-73
2022/10/02 02:37:51;;;;;;;17.37;4.40;;;11.10;99.90;;;;;;5031883;28;20456;-73
2022/10/02 02:40:22;;;;;;;13.77;3.80;;;11.10;99.90;;;;;;5033122;28;20461;-73
2022/10/02 02:42:56;;;;;;;18.53;5.47;;;11.10;99.90;;;;;;5032508;28;20977;-73
2022/10/02 02:45:27;;;;;;;14.50;3.73;;;11.10;99.90;;;;;;5032322;28;20476;-73
2022/10/02 02:47:59;;;;;;;15.70;3.93;;;11.10;99.90;;;;;;5032512;28;20455;-73
2022/10/02 02:50:32;;;;;;;13.83;4.67;;;11.10;99.90;;;;;;5031994;28;20489;-73
2022/10/02 02:53:04;;;;;;;23.90;4.27;;;11.10;99.90;;;;;;5031790;28;20458;-73
2022/10/02 02:55:34;;;;;;;16.80;4.10;;;11.00;99.90;;;;;;5032393;28;20562;-73
2022/10/02 02:58:07;;;;;;;16.37;3.73;;;11.00;99.90;;;;;;5031635;28;20463;-73
2022/10/02 03:00:34;;;;;;;14.90;3.33;;;11.00;99.90;;;;;;5031693;28;21131;-73
2022/10/02 03:03:01;;;;;;;15.03;4.13;;;11.00;99.90;;;;;;5032267;28;20461;-73
2022/10/02 03:05:28;;;;;;;16.47;3.90;;;11.00;99.90;;;;;;5031996;28;20482;-73
2022/10/02 03:07:57;;;;;;;17.40;4.10;;;11.00;99.90;;;;;;5031622;28;20445;-73
2022/10/02 03:10:39;;;;;;;13.60;3.57;;;11.00;99.90;;;;;;5031829;28;20490;-73
2022/10/02 03:13:22;;;;;;;22.70;4.40;;;11.00;99.90;;;;;;5032164;28;20468;-73
2022/10/02 03:16:02;;;;;;;20.17;4.20;;;11.10;99.90;;;;;;5031784;28;20572;-73
2022/10/02 03:18:47;;;;;;;17.03;3.70;;;11.10;99.90;;;;;;5031670;28;20462;-73
2022/10/02 03:21:18;;;;;;;12.57;3.23;;;11.00;99.90;;;;;;5027252;28;20453;-73
2022/10/02 03:23:59;;;;;;;15.27;3.73;;;11.10;99.90;;;;;;5031672;28;20460;-73
2022/10/02 03:26:34;;;;;;;16.57;3.73;;;11.10;99.90;;;;;;5031986;28;20452;-73
2022/10/02 03:29:06;;;;;;;12.80;3.37;;;11.10;99.90;;;;;;5028544;28;20951;-73
2022/10/02 03:31:34;;;;;;;12.60;3.60;;;11.10;99.90;;;;;;5031209;28;20457;-73
2022/10/02 03:34:03;;;;;;;15.23;3.77;;;11.10;99.90;;;;;;5030928;28;20817;-73
2022/10/02 03:36:31;;;;;;;14.70;3.10;;;11.10;99.90;;;;;;5031686;28;20450;-73
2022/10/02 03:39:02;;;;;;;12.40;3.23;;;11.10;99.90;;;;;;5030903;28;20449;-73
2022/10/02 03:41:28;;;;;;;25.37;3.60;;;11.20;99.90;;;;;;5031703;28;20453;-73
2022/10/02 03:43:55;;;;;;;16.17;3.17;;;11.20;99.90;;;;;;5030996;28;21004;-73
2022/10/02 03:46:23;;;;;;;16.33;3.57;;;11.10;99.90;;;;;;5030833;28;20462;-73
2022/10/02 03:48:50;;;;;;;14.73;3.70;;;11.10;99.90;;;;;;5031132;28;20449;-73
2022/10/02 03:51:17;;;;;;;12.57;3.70;;;11.20;99.90;;;;;;5031320;28;21020;-73
2022/10/02 03:53:44;;;;;;;30.40;4.30;;;11.20;99.90;;;;;;5031318;28;20456;-73
2022/10/02 03:56:17;;;;;;;12.40;4.10;;;11.30;99.90;;;;;;5024781;28;20454;-73
2022/10/02 03:58:48;;;;;;;14.93;3.83;;;11.30;99.90;;;;;;5030854;28;20796;-73
2022/10/02 04:01:20;;;;;;;25.43;4.53;;;11.30;99.90;;;;;;5025539;28;20452;-73
2022/10/02 04:03:53;;;;;;;15.80;4.37;;;11.30;99.90;;;;;;5031151;28;20971;-73
2022/10/02 04:06:23;;;;;;;22.63;4.10;;;11.30;99.90;;;;;;5031375;28;20450;-73
2022/10/02 04:08:56;;;;;;;16.83;3.60;;;11.40;99.90;;;;;;5030750;28;20461;-73
2022/10/02 04:11:30;;;;;;;17.40;3.93;;;11.40;99.90;;;;;;5031109;28;20827;-73
2022/10/02 04:14:02;;;;;;;13.17;3.53;;;11.40;99.90;;;;;;5031107;28;20488;-73
2022/10/02 04:16:35;;;;;;;21.63;4.23;;;11.40;99.90;;;;;;5030923;28;20553;-73
2022/10/02 04:19:11;;;;;;;14.07;3.83;;;11.40;99.90;;;;;;5029708;28;20457;-73
2022/10/02 04:21:42;;;;;;;16.53;3.70;;;11.40;99.90;;;;;;5030622;28;20455;-73
2022/10/02 04:24:18;;;;;;;16.67;4.33;;;11.40;99.90;;;;;;5030570;28;20481;-73
2022/10/02 04:26:50;;;;;;;15.83;3.67;;;11.40;99.90;;;;;;5030686;28;20862;-73
2022/10/02 04:29:23;;;;;;;17.03;4.10;;;11.40;99.90;;;;;;5029375;28;20458;-73
2022/10/02 04:32:00;;;;;;;21.40;4.40;;;11.40;99.90;;;;;;5030274;28;20484;-73
2022/10/02 04:34:28;;;;;;;23.77;4.00;;;11.40;99.90;;;;;;5030763;28;20480;-72
2022/10/02 04:37:10;;;;;;;16.20;3.67;;;11.40;99.90;;;;;;5030287;28;20452;-73
2022/10/02 04:39:58;;;;;;;19.93;4.00;;;11.50;99.90;;;;;;5030216;28;20450;-72
2022/10/02 04:42:36;;;;;;;22.37;4.80;;;11.50;99.90;;;;;;5025897;28;20460;-73
2022/10/02 04:45:18;;;;;;;11.80;4.00;;;11.50;99.90;;;;;;5030275;28;20474;-73
2022/10/02 04:48:14;;;;;;;16.53;4.40;;;11.60;99.90;;;;;;5028233;28;20458;-73
2022/10/02 04:50:51;;;;;;;20.23;4.23;;;11.60;99.90;;;;;;5027768;28;20654;-73
2022/10/02 04:53:33;;;;;;;19.07;5.30;;;11.70;99.90;;;;;;5025019;28;20475;-73
2022/10/02 04:56:15;;;;;;;27.77;4.57;;;11.70;99.90;;;;;;5030460;28;20454;-73
2022/10/02 04:59:02;;;;;;;22.67;3.87;;;11.70;99.90;;;;;;5029786;28;20465;-73
2022/10/02 05:01:40;;;;;;;26.00;4.93;;;11.70;99.90;;;;;;5030074;28;20444;-73
2022/10/02 05:04:37;;;;;;;20.50;4.33;;;11.70;99.90;;;;;;5029684;28;20477;-73
2022/10/02 05:07:18;;;;;;;19.77;4.07;;;11.70;99.90;;;;;;5030052;28;20454;-73
2022/10/02 05:09:52;;;;;;;16.50;4.17;;;11.70;99.90;;;;;;5029476;28;20450;-73
2022/10/02 05:12:34;;;;;;;24.73;3.80;;;11.80;99.90;;;;;;5024961;28;20453;-74
2022/10/02 05:15:21;;;;;;;19.20;3.53;;;11.80;99.90;;;;;;5030441;28;20496;-74
2022/10/02 05:18:01;;;;;;;26.17;4.40;;;11.80;99.90;;;;;;5028177;28;20453;-74
2022/10/02 05:20:46;;;;;;;31.27;4.23;;;11.80;99.90;;;;;;5025439;28;20464;-73
2022/10/02 05:23:38;;;;;;;40.53;4.67;;;11.80;99.90;;;;;;5030094;28;20452;-77
2022/10/02 05:26:20;;;;;;;13.73;3.93;;;11.80;99.90;;;;;;5030062;28;20538;-74
2022/10/02 05:29:22;;;;;;;20.37;6.17;;;11.80;99.90;;;;;;5029352;28;20467;-74
2022/10/02 05:32:00;;;;;;;14.17;4.00;;;11.80;99.90;;;;;;5005569;28;20491;-75
2022/10/02 05:34:42;;;;;;;23.73;4.97;;;11.80;99.90;;;;;;5025477;28;20474;-74
2022/10/02 05:37:23;;;;;;;16.17;4.33;;;11.80;99.90;;;;;;5029212;28;20469;-74
2022/10/02 05:39:58;;;;;;;15.70;4.27;;;11.80;99.90;;;;;;5029511;28;20449;-74
2022/10/02 05:42:32;;;;;;;22.13;4.17;;;11.80;99.90;;;;;;5025052;28;20469;-75
2022/10/02 05:45:03;;;;;;;14.23;3.63;;;11.80;99.90;;;;;;5029340;28;20485;-74
2022/10/02 05:47:34;;;;;;;23.87;4.37;;;11.90;99.90;;;;;;5029007;28;20457;-74
2022/10/02 05:50:09;;;;;;;22.97;3.90;;;11.90;99.90;;;;;;5029768;28;20486;-74
2022/10/02 05:52:40;;;;;;;14.90;4.00;;;12.00;99.90;;;;;;5031439;28;20989;-74
2022/10/02 05:55:18;;;;;;;11.20;3.93;;;12.10;99.90;;;;;;5033618;28;20487;-75
2022/10/02 05:57:51;;;;;;;19.70;4.33;;;12.20;99.90;;;;;;5033175;28;20454;-74
2022/10/02 06:00:28;;;;;;;14.87;4.63;;;12.30;99.90;;;;;;5032635;28;20445;-75
2022/10/02 06:03:06;;;;;;;14.57;3.97;;;12.40;99.90;;;;;;5032251;28;20509;-75
2022/10/02 06:05:43;;;;;;;20.80;4.70;;;12.50;99.90;;;;;;5033012;28;20482;-75
2022/10/02 06:08:14;;;;;;;17.57;4.03;;;12.60;99.90;;;;;;5032560;28;20461;-75
2022/10/02 06:10:48;;;;;;;19.53;3.53;;;12.60;99.90;;;;;;5032418;28;20513;-74
2022/10/02 06:13:22;;;;;;;12.00;3.33;;;12.70;99.90;;;;;;5033118;28;20816;-74
2022/10/02 06:15:54;;;;;;;25.07;3.93;;;12.70;99.90;;;;;;5031855;28;20884;-74
2022/10/02 06:18:25;;;;;;;14.30;3.57;;;12.60;99.90;;;;;;5027195;28;20451;-74
2022/10/02 06:20:55;;;;;;;17.50;4.27;;;12.50;99.90;;;;;;5032523;28;20465;-74
2022/10/02 06:23:26;;;;;;;12.33;3.30;;;12.60;99.90;;;;;;5032339;28;20450;-74
2022/10/02 06:25:58;;;;;;;10.60;3.77;;;12.70;99.90;;;;;;5032579;28;20990;-74
2022/10/02 06:28:33;;;;;;;17.33;3.80;;;12.80;99.90;;;;;;5027349;28;20457;-74
2022/10/02 06:31:04;;;;;;;26.83;4.03;;;12.80;99.90;;;;;;5031864;28;20481;-73
2022/10/02 06:33:33;;;;;;;16.03;4.07;;;12.90;99.90;;;;;;5032939;28;20974;-72
2022/10/02 06:36:15;;;;;;;23.63;4.60;;;12.90;99.90;;;;;;5034455;28;20481;-82
2022/10/02 06:39:02;;;;;;;19.77;4.13;;;13.00;99.90;;;;;;5038243;28;20457;-81
2022/10/02 06:41:38;;;;;;;17.10;3.13;;;12.80;99.90;;;;;;5032927;28;20459;-83
2022/10/02 06:44:15;;;;;;;19.20;4.37;;;13.00;99.90;;;;;;5037803;28;20479;-81
2022/10/02 06:46:51;;;;;;;15.47;4.20;;;12.90;99.90;;;;;;5037726;28;20468;-82
2022/10/02 06:49:25;;;;;;;13.23;3.57;;;12.90;99.90;;;;;;5037003;28;21003;-82
2022/10/02 06:52:04;;;;;;;21.50;4.37;;;12.90;99.90;;;;;;5038484;28;20485;-85
2022/10/02 06:54:48;;;;;;;15.70;3.50;;;12.90;99.90;;;;;;5033099;28;20476;-84
2022/10/02 06:57:41;;;;;;;14.67;3.80;;;13.00;99.90;;;;;;5036178;28;20466;-83
2022/10/02 07:00:11;;;;;;;15.77;4.07;;;13.10;99.90;;;;;;5037164;28;20818;-73
2022/10/02 07:02:58;;;;;;;19.20;4.73;;;13.20;99.90;;;;;;5030993;28;20457;-73
2022/10/02 07:06:08;;;;;;;17.13;3.40;;;13.30;99.90;;;;;;5024655;28;20497;-73
2022/10/02 07:09:03;;;;;;;10.90;3.37;;;13.50;99.90;;;;;;4989483;28;20447;-72
2022/10/02 07:11:39;;;;;;;9.17;3.50;;;13.70;99.90;;;;;;4984601;28;20576;-73
2022/10/02 07:14:26;;;;;;;12.40;3.67;;;13.80;99.90;;;;;;5022262;28;20512;-73
2022/10/02 07:17:25;;;;;;;14.17;3.37;;;13.80;99.90;;;;;;5031826;28;20453;-73
2022/10/02 07:20:33;;;;;;;10.03;3.23;;;13.70;99.90;;;;;;5030680;28;20454;-72
2022/10/02 07:23:28;;;;;;;14.27;3.60;;;13.60;99.90;;;;;;5027453;28;20802;-73
2022/10/02 07:26:12;;;;;;;16.13;6.63;;;13.60;99.90;;;;;;5031547;28;20477;-72
2022/10/02 07:28:42;;;;;;;11.10;2.80;;;13.50;99.90;;;;;;5031354;28;20457;-72
2022/10/02 07:31:21;;;;;;;11.37;2.40;;;13.50;99.90;;;;;;5031167;28;20485;-73
2022/10/02 07:34:02;;;;;;;10.07;2.60;;;13.50;99.90;;;;;;5030986;28;20453;-73
2022/10/02 07:36:43;;;;;;;12.03;2.57;;;13.60;99.90;;;;;;5011551;28;20468;-72
2022/10/02 07:39:22;;;;;;;9.50;2.87;;;13.50;99.90;;;;;;5025212;28;20458;-72
2022/10/02 07:42:05;;;;;;;6.47;2.40;;;13.50;99.90;;;;;;5032915;28;20448;-72
2022/10/02 07:44:55;;;;;;;7.43;2.83;;;13.50;99.90;;;;;;5033323;28;20826;-73
2022/10/02 07:47:41;;;;;;;11.97;2.70;;;13.50;99.90;;;;;;5032277;28;20465;-73
2022/10/02 07:50:12;;;;;;;17.40;4.50;;;13.50;99.90;;;;;;5029899;28;20458;-73
2022/10/02 07:52:46;;;;;;;8.23;2.80;;;13.50;99.90;;;;;;5032360;28;20917;-73
2022/10/02 07:55:18;;;;;;;6.47;3.00;;;13.50;99.90;;;;;;5032005;28;20477;-73
2022/10/02 07:57:53;;;;;;;14.93;3.13;;;13.50;99.90;;;;;;5032165;28;20493;-72
2022/10/02 08:00:24;;;;;;;13.47;2.60;;;13.60;99.90;;;;;;5024369;28;20468;-72
2022/10/02 08:02:56;;;;;;;9.03;2.63;;;13.60;99.90;;;;;;5032415;28;20472;-71
2022/10/02 08:05:26;;;;;;;7.10;2.70;;;13.60;99.90;;;;;;5032333;28;20473;-71
2022/10/02 08:07:58;;;;;;;2.90;2.23;;;13.60;99.90;;;;;;5032567;28;20453;-72
2022/10/02 08:10:31;;;;;;;5.20;2.60;;;13.60;99.90;;;;;;5031418;28;20465;-72
2022/10/02 08:13:06;;;;;;;6.10;2.60;;;13.60;99.90;;;;;;5032232;28;20465;-73
2022/10/02 08:15:37;;;;;;;8.33;2.60;;;13.60;99.90;;;;;;5031195;28;20473;-72
2022/10/02 08:18:13;;;;;;;5.93;2.90;;;13.60;99.90;;;;;;5031745;28;20479;-73
2022/10/02 08:20:43;;;;;;;7.00;2.40;;;13.60;99.90;;;;;;5031877;28;20457;-73
2022/10/02 08:23:19;;;;;;;10.93;3.07;;;13.50;99.90;;;;;;5031851;28;20488;-73
2022/10/02 08:25:50;;;;;;;12.97;2.93;;;13.70;99.90;;;;;;5031364;28;20477;-72
2022/10/02 08:28:23;;;;;;;7.43;2.27;;;13.70;99.90;;;;;;5031749;28;20460;-73
2022/10/02 08:30:50;;;;;;;7.40;2.30;;;13.70;99.90;;;;;;5031521;28;20478;-73
2022/10/02 08:33:21;;;;;;;5.60;2.53;;;13.90;99.90;;;;;;5032199;28;20457;-73
2022/10/02 08:36:04;;;;;;;3.80;2.17;;;13.80;99.90;;;;;;5031926;28;20481;-73
2022/10/02 08:38:39;;;;;;;3.83;2.00;;;13.80;99.90;;;;;;5031791;28;20568;-72
2022/10/02 08:41:55;;;;;;;7.53;2.70;;;13.80;99.90;;;;;;5031766;28;20807;-71
2022/10/02 08:44:49;;;;;;;5.47;2.10;;;13.80;99.90;;;;;;5026718;28;20485;-73
2022/10/02 08:47:52;;;;;;;7.50;2.57;;;13.90;99.90;;;;;;5031883;28;20832;-72
2022/10/02 08:50:47;;;;;;;5.30;2.40;;;13.90;99.90;;;;;;5015109;28;20468;-73
2022/10/02 08:53:56;;;;;;;4.37;2.10;;;13.90;99.90;;;;;;5032311;28;20454;-72
2022/10/02 08:56:44;;;;;;;3.80;2.20;;;13.90;99.90;;;;;;5031720;28;20466;-72
2022/10/02 08:59:43;;;;;;;5.00;2.30;;;13.90;99.90;;;;;;5031126;28;20465;-73
2022/10/02 09:02:56;;;;;;;11.40;2.67;;;14.00;99.90;;;;;;5032357;28;20457;-73
2022/10/02 09:06:19;;;;;;;5.33;2.47;;;14.00;99.90;;;;;;5023219;28;20532;-73
2022/10/02 09:09:17;;;;;;;6.93;2.17;;;14.10;99.90;;;;;;5032058;28;20446;-72
2022/10/02 09:12:27;;;;;;;5.37;1.80;;;14.20;99.90;;;;;;5027925;28;21025;-72
2022/10/02 09:15:01;;;;;;;2.83;2.53;;;14.30;99.90;;;;;;5031106;28;20466;-72
2022/10/02 09:17:46;;;;;;;4.03;2.33;;;14.30;99.90;;;;;;5031140;28;20460;-72
2022/10/02 09:20:55;;;;;;;1.90;1.80;;;14.40;99.90;;;;;;5029063;28;20450;-71
2022/10/02 09:24:02;;;;;;;3.37;2.80;;;14.40;99.90;;;;;;5031099;28;20435;-73
2022/10/02 09:26:40;;;;;;;2.73;2.43;;;14.50;99.90;;;;;;5030945;28;20449;-73
2022/10/02 09:29:35;;;;;;;4.73;2.67;;;14.50;99.90;;;;;;5034229;28;20457;-72
2022/10/02 09:32:33;;;;;;;4.83;3.17;;;14.50;99.90;;;;;;5019314;28;21187;-73
2022/10/02 09:35:42;;;;;;;3.03;2.00;;;14.60;99.90;;;;;;5026336;28;20495;-72
2022/10/02 09:38:28;;;;;;;1.60;1.50;;;14.60;99.90;;;;;;5023022;28;20465;-72
2022/10/02 09:41:25;;;;;;;5.00;2.50;;;14.60;99.90;;;;;;5032918;28;20485;-71
2022/10/02 09:44:24;;;;;;;3.47;1.90;;;14.60;99.90;;;;;;5034398;28;20915;-72
2022/10/02 09:47:13;;;;;;;1.53;1.43;;;14.50;99.90;;;;;;5022884;28;20537;-72
2022/10/02 09:50:10;;;;;;;2.27;1.77;;;14.40;99.90;;;;;;5031396;28;20462;-72
2022/10/02 09:52:57;;;;;;;2.40;1.70;;;14.40;99.90;;;;;;5033635;28;20507;-72
2022/10/02 09:55:57;;;;;;;2.73;1.63;;;14.40;99.90;;;;;;5033502;28;20477;-71
2022/10/02 09:59:25;;;;;;;4.47;2.20;;;14.50;99.90;;;;;;5029802;28;20458;-71
2022/10/02 10:02:12;;;;;;;3.10;1.80;;;14.60;99.90;;;;;;5032734;28;20454;-75
2022/10/02 10:05:07;;;;;;;4.93;1.90;;;14.70;99.90;;;;;;5033340;28;20956;-74
2022/10/02 10:08:05;;;;;;;1.87;1.73;;;14.70;99.90;;;;;;5034043;28;20435;-74
2022/10/02 10:10:49;;;;;;;2.00;1.70;;;14.80;99.90;;;;;;5031571;28;20477;-74
2022/10/02 10:13:34;;;;;;;2.73;1.73;;;14.80;99.90;;;;;;5030956;28;20901;-74
2022/10/02 10:16:43;;;;;;;3.63;1.70;;;14.90;99.90;;;;;;5033201;28;20454;-74
2022/10/02 10:19:44;;;;;;;4.20;1.50;;;15.00;99.90;;;;;;5028686;28;20457;-74
2022/10/02 10:22:37;;;;;;;1.70;1.60;;;15.10;99.90;;;;;;5033727;28;20446;-73
2022/10/02 10:25:35;;;;;;;2.77;1.50;;;15.10;99.90;;;;;;5033446;28;20971;-74
2022/10/02 10:28:36;;;;;;;3.00;2.33;;;15.10;99.90;;;;;;5021653;28;20454;-74
2022/10/02 10:31:43;;;;;;;2.67;1.47;;;15.20;99.90;;;;;;5032850;28;21039;-74
2022/10/02 10:34:37;;;;;;;2.70;1.93;;;15.10;99.90;;;;;;5032787;28;20478;-75
2022/10/02 10:40:25;;;;;;;4.13;1.60;;;14.90;99.90;;;;;;5032166;28;20461;-74
2022/10/02 10:43:24;;;;;;;2.10;1.90;;;14.90;99.90;;;;;;5029034;28;20446;-76
2022/10/02 10:46:16;;;;;;;1.53;1.43;;;14.80;99.90;;;;;;5032312;28;20462;-76
2022/10/02 10:49:03;;;;;;;3.27;1.60;;;14.80;99.90;;;;;;5033156;28;20464;-77
2022/10/02 10:51:37;;;;;;;1.87;1.67;;;14.80;99.90;;;;;;5032266;28;20482;-73
2022/10/02 10:54:47;;;;;;;3.23;1.83;;;14.80;99.90;;;;;;5032710;28;20470;-73
2022/10/02 10:57:28;;;;;;;2.77;2.00;;;14.80;99.90;;;;;;5025558;28;20432;-74
2022/10/02 11:00:17;;;;;;;1.70;1.60;;;14.70;99.90;;;;;;5030213;28;20978;-73
2022/10/02 11:03:10;;;;;;;10.57;3.73;;;14.70;99.90;;;;;;5013344;28;20442;-75
2022/10/02 11:06:11;;;;;;;3.40;2.10;;;14.60;99.90;;;;;;5012469;28;20483;-73
2022/10/02 11:09:09;;;;;;;2.07;1.70;;;14.60;99.90;;;;;;5030287;28;20447;-74
2022/10/02 11:11:43;;;;;;;7.63;4.53;;;14.60;99.90;;;;;;5032022;28;20482;-73
2022/10/02 11:14:25;;;;;;;3.67;2.80;;;14.60;99.90;;;;;;5032133;28;20581;-73
2022/10/02 11:17:22;;;;;;;3.57;2.10;;;14.60;99.90;;;;;;5032745;28;20462;-73
2022/10/02 11:20:21;;;;;;;2.40;2.20;;;14.60;99.90;;;;;;5026868;28;20541;-74
2022/10/02 11:23:20;;;;;;;2.47;1.60;;;14.70;99.90;;;;;;5013165;28;20516;-74
2022/10/02 11:26:21;;;;;;;2.63;1.70;;;14.80;99.90;;;;;;5030129;28;20481;-73
2022/10/02 11:29:32;;;;;;;2.23;1.60;;;15.00;99.90;;;;;;5030387;28;20532;-73
2022/10/02 11:32:17;;;;;;;2.13;1.90;;;15.20;99.90;;;;;;5030484;28;20486;-73
2022/10/02 11:35:00;;;;;;;2.90;1.70;;;15.30;99.90;;;;;;5031470;28;20837;-74
2022/10/02 11:37:46;;;;;;;2.80;1.83;;;15.30;99.90;;;;;;5031091;28;20461;-73
2022/10/02 11:40:43;;;;;;;1.90;1.80;;;15.30;99.90;;;;;;5031889;28;20473;-73
2022/10/02 11:43:39;;;;;;;1.50;1.40;;;15.40;99.90;;;;;;5031333;28;20417;-73
2022/10/02 11:46:35;;;;;;;4.60;1.90;;;15.40;99.90;;;;;;5030642;28;20470;-74
2022/10/02 11:49:26;;;;;;;3.10;1.60;;;15.40;99.90;;;;;;5032184;28;20454;-74
2022/10/02 11:52:10;;;;;;;2.57;1.50;;;15.40;99.90;;;;;;5031069;28;20829;-74
2022/10/02 11:54:57;;;;;;;1.70;1.37;;;15.40;99.90;;;;;;5029096;28;20445;-73
2022/10/02 11:57:34;;;;;;;3.20;1.80;;;15.50;99.90;;;;;;5011817;28;20455;-74
2022/10/02 12:00:44;;;;;;;3.37;1.70;;;15.40;99.90;;;;;;5028031;28;20797;-74
2022/10/02 12:03:18;;;;;;;5.10;1.80;;;15.40;99.90;;;;;;5011579;28;20420;-76
2022/10/02 12:05:54;;;;;;;4.40;1.50;;;15.50;99.90;;;;;;5031463;28;20438;-77
2022/10/02 12:08:33;;;;;;;2.63;1.67;;;15.80;99.90;;;;;;5032333;28;20280;-77
2022/10/02 12:11:08;;;;;;;2.60;1.70;;;16.10;99.90;;;;;;5031341;28;20409;-77
2022/10/02 12:13:50;;;;;;;3.00;1.73;;;16.40;99.90;;;;;;5033212;28;20226;-76
2022/10/02 12:16:29;;;;;;;3.50;2.37;;;16.60;99.90;;;;;;5031384;28;20440;-75
2022/10/02 12:19:10;;;;;;;9.17;3.13;;;16.60;99.90;;;;;;5032336;28;20458;-78
2022/10/02 12:27:43;;;;;;;21.20;13.60;;;17.10;99.90;;;;;;5032706;28;20932;-79
2022/10/02 12:30:14;;;;;;;17.83;9.53;;;17.00;99.90;;;;;;5030961;28;20458;-73
2022/10/02 12:32:55;;;;;;;2.37;1.80;;;16.90;99.90;;;;;;5030934;28;20554;-76
2022/10/02 12:35:34;;;;;;;10.23;4.37;;;16.80;99.90;;;;;;5021784;28;20462;-76
2022/10/02 12:38:15;;;;;;;3.43;3.13;;;16.80;99.90;;;;;;5031089;28;20453;-79
2022/10/02 12:40:51;;;;;;;1.63;1.53;;;16.80;99.90;;;;;;5031279;28;20446;-76
2022/10/02 12:43:52;;;;;;;2.40;1.97;;;16.80;99.90;;;;;;5031022;28;20432;-76
2022/10/02 12:46:30;;;;;;;3.77;2.70;;;16.70;99.90;;;;;;5029562;28;20549;-77
2022/10/02 12:49:12;;;;;;;9.03;1.93;;;16.70;99.90;;;;;;5030908;28;20531;-76
2022/10/02 12:51:54;;;;;;;3.83;1.67;;;16.70;99.90;;;;;;5031124;28;20421;-75
2022/10/02 12:54:49;;;;;;;2.77;1.60;;;16.80;99.90;;;;;;5031348;28;20490;-77
2022/10/02 12:58:06;;;;;;;2.80;1.90;;;16.70;99.90;;;;;;5012476;28;20425;-78
2022/10/02 13:00:55;;;;;;;3.57;1.83;;;16.70;99.90;;;;;;4988865;28;20430;-78
2022/10/02 13:04:00;;;;;;;3.93;1.67;;;16.80;99.90;;;;;;4992926;28;20437;-78
2022/10/02 13:07:07;;;;;;;2.63;1.80;;;16.70;99.90;;;;;;5029251;28;20942;-76
2022/10/02 13:09:47;;;;;;;2.27;2.07;;;16.70;99.90;;;;;;5034804;28;20457;-76
2022/10/02 13:12:31;;;;;;;3.03;1.70;;;16.60;99.90;;;;;;5034523;28;20493;-75
2022/10/02 13:15:13;;;;;;;2.67;1.70;;;16.50;99.90;;;;;;5035355;28;20514;-76
2022/10/02 13:17:48;;;;;;;3.30;2.00;;;16.60;99.90;;;;;;5034037;28;20457;-76
2022/10/02 13:20:23;;;;;;;5.20;2.40;;;16.70;99.90;;;;;;5034137;28;20953;-77
2022/10/02 13:22:59;;;;;;;4.20;1.87;;;16.80;99.90;;;;;;5034731;28;20453;-75
2022/10/02 13:25:43;;;;;;;4.50;2.40;;;17.10;99.90;;;;;;5033936;28;20476;-75
2022/10/02 13:28:38;;;;;;;8.30;2.90;;;17.20;99.90;;;;;;5033211;28;20542;-76
2022/10/02 13:31:15;;;;;;;3.60;2.50;;;16.90;99.90;;;;;;5033504;28;20966;-75
2022/10/02 13:34:08;;;;;;;5.23;2.70;;;16.80;99.90;;;;;;5033712;28;20460;-75
2022/10/02 13:36:51;;;;;;;6.27;2.80;;;16.70;99.90;;;;;;5031162;28;20942;-75
2022/10/02 13:39:34;;;;;;;3.67;2.83;;;16.90;99.90;;;;;;5022753;28;20809;-75
2022/10/02 13:42:17;;;;;;;3.77;2.50;;;17.10;99.90;;;;;;5034419;28;20458;-75
2022/10/02 13:44:50;;;;;;;10.53;2.63;;;17.40;99.90;;;;;;5033589;28;20610;-75
2022/10/02 13:47:30;;;;;;;3.50;2.40;;;17.60;99.90;;;;;;5034236;28;20458;-76
2022/10/02 13:50:21;;;;;;;4.20;2.43;;;17.80;99.90;;;;;;5034573;28;20481;-75
2022/10/02 13:53:04;;;;;;;10.27;2.70;;;18.10;99.90;;;;;;5033445;28;20449;-75
2022/10/02 13:55:35;;;;;;;4.20;2.37;;;18.40;99.90;;;;;;5034183;28;20475;-75
2022/10/02 13:58:27;;;;;;;2.90;2.60;;;18.40;99.90;;;;;;5033668;28;20435;-74
2022/10/02 14:01:03;;;;;;;6.10;2.47;;;18.40;99.90;;;;;;5033958;28;20446;-75